sensor_id;sensor_type;location;lat;lon;timestamp;temperature;humidity
47921;DHT22;33686;48.770;9.186;2022-07-23T04:16:53;22.40;99.90
47921;DHT22;33686;48.770;9.186;2022-07-23T04:19:20;22.50;99.90
47921;DHT22;33686;48.770;9.186;2022-07-23T04:21:56;22.40;99.90
47921;DHT22;33686;48.770;9.186;2022-07-23T04:24:22;22.30;99.90
47921;DHT22;33686;48.770;9.186;2022-07-23T04:26:47;22.40;99.90
47921;DHT22;33686;48.770;9.186;2022-07-23T04:29:13;22.60;99.90
47921;DHT22;33686;48.770;9.186;2022-07-23T04:31:38;22.70;99.90
47921;DHT22;33686;48.770;9.186;2022-07-23T04:34:05;22.80;99.90
47921;DHT22;33686;48.770;9.186;2022-07-23T04:36:31;22.90;99.90
47921;DHT22;33686;48.770;9.186;2022-07-23T04:38:56;23.00;99.90
47921;DHT22;33686;48.770;9.186;2022-07-23T04:41:22;23.10;99.90
47921;DHT22;33686;48.770;9.186;2022-07-23T04:43:48;23.30;99.90
47921;DHT22;33686;48.770;9.186;2022-07-23T04:46:14;23.30;99.90
47921;DHT22;33686;48.770;9.186;2022-07-23T04:48:45;23.10;99.90
47921;DHT22;33686;48.770;9.186;2022-07-23T04:51:11;23.30;99.90
47921;DHT22;33686;48.770;9.186;2022-07-23T04:53:37;23.40;99.90
47921;DHT22;33686;48.770;9.186;2022-07-23T04:56:02;23.70;99.90
47921;DHT22;33686;48.770;9.186;2022-07-23T04:58:29;23.80;99.90
47921;DHT22;33686;48.770;9.186;2022-07-23T05:00:57;23.80;99.90
47921;DHT22;33686;48.770;9.186;2022-07-23T05:03:23;23.90;99.90
47921;DHT22;33686;48.770;9.186;2022-07-23T05:05:49;24.00;99.90
47921;DHT22;33686;48.770;9.186;2022-07-23T05:08:17;24.30;99.90
47921;DHT22;33686;48.770;9.186;2022-07-23T05:10:46;24.80;99.90
47921;DHT22;33686;48.770;9.186;2022-07-23T05:13:16;25.10;99.90
47921;DHT22;33686;48.770;9.186;2022-07-23T05:15:42;25.60;99.70
47921;DHT22;33686;48.770;9.186;2022-07-23T05:18:08;25.40;99.20
47921;DHT22;33686;48.770;9.186;2022-07-23T05:20:34;24.80;99.90
47921;DHT22;33686;48.770;9.186;2022-07-23T05:22:59;24.60;99.90
47921;DHT22;33686;48.770;9.186;2022-07-23T05:25:25;24.70;99.90
47921;DHT22;33686;48.770;9.186;2022-07-23T05:27:51;24.30;99.90
47921;DHT22;33686;48.770;9.186;2022-07-23T05:30:16;24.00;99.90
47921;DHT22;33686;48.770;9.186;2022-07-23T05:32:44;24.30;99.90
47921;DHT22;33686;48.770;9.186;2022-07-23T05:35:14;25.00;99.90
47921;DHT22;33686;48.770;9.186;2022-07-23T05:37:45;25.60;99.10
47921;DHT22;33686;48.770;9.186;2022-07-23T05:40:11;26.40;98.00
47921;DHT22;33686;48.770;9.186;2022-07-23T05:42:38;26.00;98.20
47921;DHT22;33686;48.770;9.186;2022-07-23T05:45:05;25.30;98.90
47921;DHT22;33686;48.770;9.186;2022-07-23T05:47:43;25.30;99.20
47921;DHT22;33686;48.770;9.186;2022-07-23T05:50:10;24.80;99.60
47921;DHT22;33686;48.770;9.186;2022-07-23T05:52:42;24.60;99.90
47921;DHT22;33686;48.770;9.186;2022-07-23T05:55:30;24.70;99.60
47921;DHT22;33686;48.770;9.186;2022-07-23T05:57:57;24.20;99.90
47921;DHT22;33686;48.770;9.186;2022-07-23T06:00:23;24.00;99.90
47921;DHT22;33686;48.770;9.186;2022-07-23T06:02:49;24.10;99.90
47921;DHT22;33686;48.770;9.186;2022-07-23T06:05:16;24.20;99.90
47921;DHT22;33686;48.770;9.186;2022-07-23T06:07:43;24.20;99.90
47921;DHT22;33686;48.770;9.186;2022-07-23T06:10:09;24.10;99.90
47921;DHT22;33686;48.770;9.186;2022-07-23T06:12:35;24.30;99.90
47921;DHT22;33686;48.770;9.186;2022-07-23T06:15:01;24.20;99.90
47921;DHT22;33686;48.770;9.186;2022-07-23T06:17:26;24.20;99.90
47921;DHT22;33686;48.770;9.186;2022-07-23T06:19:52;24.20;99.90
47921;DHT22;33686;48.770;9.186;2022-07-23T06:22:18;24.00;99.90
47921;DHT22;33686;48.770;9.186;2022-07-23T06:24:44;24.00;99.90
47921;DHT22;33686;48.770;9.186;2022-07-23T06:27:10;24.30;99.90
47921;DHT22;33686;48.770;9.186;2022-07-23T06:29:35;24.50;99.90
47921;DHT22;33686;48.770;9.186;2022-07-23T06:32:01;24.60;99.90
47921;DHT22;33686;48.770;9.186;2022-07-23T06:34:27;24.80;99.90
47921;DHT22;33686;48.770;9.186;2022-07-23T06:36:55;25.00;99.80
47921;DHT22;33686;48.770;9.186;2022-07-23T06:39:20;25.00;99.70
47921;DHT22;33686;48.770;9.186;2022-07-23T06:41:47;25.20;99.60
47921;DHT22;33686;48.770;9.186;2022-07-23T06:44:13;25.40;99.40
47921;DHT22;33686;48.770;9.186;2022-07-23T06:46:41;25.10;98.40
47921;DHT22;33686;48.770;9.186;2022-07-23T06:49:06;24.70;99.50
47921;DHT22;33686;48.770;9.186;2022-07-23T06:51:32;25.00;99.30
47921;DHT22;33686;48.770;9.186;2022-07-23T06:54:00;24.90;99.70
47921;DHT22;33686;48.770;9.186;2022-07-23T06:56:26;24.60;99.90
47921;DHT22;33686;48.770;9.186;2022-07-23T06:58:53;24.10;99.90
47921;DHT22;33686;48.770;9.186;2022-07-23T07:01:18;24.00;99.90
47921;DHT22;33686;48.770;9.186;2022-07-23T07:03:44;24.20;99.90
47921;DHT22;33686;48.770;9.186;2022-07-23T07:06:09;24.10;99.90
47921;DHT22;33686;48.770;9.186;2022-07-23T07:08:35;24.00;99.90
47921;DHT22;33686;48.770;9.186;2022-07-23T07:11:01;24.00;99.90
47921;DHT22;33686;48.770;9.186;2022-07-23T07:13:27;23.60;99.90
47921;DHT22;33686;48.770;9.186;2022-07-23T07:15:52;23.80;99.90
47921;DHT22;33686;48.770;9.186;2022-07-23T07:18:18;24.00;99.90
47921;DHT22;33686;48.770;9.186;2022-07-23T07:20:43;23.70;99.90
47921;DHT22;33686;48.770;9.186;2022-07-23T07:23:09;23.80;99.90
47921;DHT22;33686;48.770;9.186;2022-07-23T07:25:34;23.50;99.90
47921;DHT22;33686;48.770;9.186;2022-07-23T07:28:00;23.20;99.90
47921;DHT22;33686;48.770;9.186;2022-07-23T07:30:25;22.90;99.90
47921;DHT22;33686;48.770;9.186;2022-07-23T07:32:51;23.10;99.90
47921;DHT22;33686;48.770;9.186;2022-07-23T07:35:16;23.10;99.90
47921;DHT22;33686;48.770;9.186;2022-07-23T07:37:42;22.80;99.90
47921;DHT22;33686;48.770;9.186;2022-07-23T07:40:08;22.60;99.90
47921;DHT22;33686;48.770;9.186;2022-07-23T07:42:33;22.80;99.90
47921;DHT22;33686;48.770;9.186;2022-07-23T07:44:59;22.90;99.90
47921;DHT22;33686;48.770;9.186;2022-07-23T07:47:25;24.20;99.90
47921;DHT22;33686;48.770;9.186;2022-07-23T07:49:50;24.60;99.90
47921;DHT22;33686;48.770;9.186;2022-07-23T07:52:16;25.00;99.90
47921;DHT22;33686;48.770;9.186;2022-07-23T07:54:41;25.50;99.90
47921;DHT22;33686;48.770;9.186;2022-07-23T07:57:08;27.20;99.00
47921;DHT22;33686;48.770;9.186;2022-07-23T07:59:33;26.80;98.10
47921;DHT22;33686;48.770;9.186;2022-07-23T08:01:59;25.40;99.70
47921;DHT22;33686;48.770;9.186;2022-07-23T08:04:24;26.00;99.50
47921;DHT22;33686;48.770;9.186;2022-07-23T08:06:50;26.70;98.30
47921;DHT22;33686;48.770;9.186;2022-07-23T08:09:16;26.40;98.40
47921;DHT22;33686;48.770;9.186;2022-07-23T08:11:41;26.30;98.50
47921;DHT22;33686;48.770;9.186;2022-07-23T08:14:07;25.90;99.00
47921;DHT22;33686;48.770;9.186;2022-07-23T08:16:32;25.60;99.20
47921;DHT22;33686;48.770;9.186;2022-07-23T08:18:58;26.80;97.60
47921;DHT22;33686;48.770;9.186;2022-07-23T08:21:24;26.50;97.60
47921;DHT22;33686;48.770;9.186;2022-07-23T08:23:49;26.40;97.40
47921;DHT22;33686;48.770;9.186;2022-07-23T08:26:15;25.50;98.60
47921;DHT22;33686;48.770;9.186;2022-07-23T08:28:40;24.90;99.60
47921;DHT22;33686;48.770;9.186;2022-07-23T08:31:06;24.30;99.90
47921;DHT22;33686;48.770;9.186;2022-07-23T08:33:31;24.10;99.90
47921;DHT22;33686;48.770;9.186;2022-07-23T08:35:57;24.20;99.80
47921;DHT22;33686;48.770;9.186;2022-07-23T08:38:23;24.20;99.30
47921;DHT22;33686;48.770;9.186;2022-07-23T08:40:52;23.90;99.90
47921;DHT22;33686;48.770;9.186;2022-07-23T08:43:21;24.40;99.50
47921;DHT22;33686;48.770;9.186;2022-07-23T08:45:49;24.80;99.20
47921;DHT22;33686;48.770;9.186;2022-07-23T08:48:17;25.30;99.10
47921;DHT22;33686;48.770;9.186;2022-07-23T08:50:43;26.60;97.40
47921;DHT22;33686;48.770;9.186;2022-07-23T08:53:09;26.90;96.30
47921;DHT22;33686;48.770;9.186;2022-07-23T08:55:35;28.10;95.20
47921;DHT22;33686;48.770;9.186;2022-07-23T08:58:01;29.00;94.00
47921;DHT22;33686;48.770;9.186;2022-07-23T09:00:27;29.10;93.60
47921;DHT22;33686;48.770;9.186;2022-07-23T09:02:53;29.40;93.20
47921;DHT22;33686;48.770;9.186;2022-07-23T09:05:19;30.00;92.70
47921;DHT22;33686;48.770;9.186;2022-07-23T09:10:29;30.90;91.10
47921;DHT22;33686;48.770;9.186;2022-07-23T09:12:55;30.80;90.90
47921;DHT22;33686;48.770;9.186;2022-07-23T09:15:20;30.30;91.30
47921;DHT22;33686;48.770;9.186;2022-07-23T09:17:46;30.20;91.10
47921;DHT22;33686;48.770;9.186;2022-07-23T09:20:13;31.00;90.30
47921;DHT22;33686;48.770;9.186;2022-07-23T09:22:40;30.90;90.00
47921;DHT22;33686;48.770;9.186;2022-07-23T09:25:11;30.80;90.10
47921;DHT22;33686;48.770;9.186;2022-07-23T09:30:12;31.90;87.60
47921;DHT22;33686;48.770;9.186;2022-07-23T09:32:41;31.70;87.60
47921;DHT22;33686;48.770;9.186;2022-07-23T09:35:07;31.70;87.20
47921;DHT22;33686;48.770;9.186;2022-07-23T09:37:33;32.10;86.60
47921;DHT22;33686;48.770;9.186;2022-07-23T09:40:05;31.30;87.20
47921;DHT22;33686;48.770;9.186;2022-07-23T09:42:32;31.10;87.10
47921;DHT22;33686;48.770;9.186;2022-07-23T09:44:57;31.30;86.60
47921;DHT22;33686;48.770;9.186;2022-07-23T09:47:24;31.60;86.90
47921;DHT22;33686;48.770;9.186;2022-07-23T09:50:03;31.30;86.80
47921;DHT22;33686;48.770;9.186;2022-07-23T09:52:42;31.20;87.30
47921;DHT22;33686;48.770;9.186;2022-07-23T09:55:08;30.40;87.80
47921;DHT22;33686;48.770;9.186;2022-07-23T09:57:34;29.90;88.80
47921;DHT22;33686;48.770;9.186;2022-07-23T10:00:02;29.60;89.70
47921;DHT22;33686;48.770;9.186;2022-07-23T10:02:31;29.20;89.80
47921;DHT22;33686;48.770;9.186;2022-07-23T10:05:17;29.30;90.50
47921;DHT22;33686;48.770;9.186;2022-07-23T10:08:02;29.70;90.30
47921;DHT22;33686;48.770;9.186;2022-07-23T10:10:51;30.10;90.20
47921;DHT22;33686;48.770;9.186;2022-07-23T10:13:19;29.60;90.30
47921;DHT22;33686;48.770;9.186;2022-07-23T10:15:49;29.20;90.70
47921;DHT22;33686;48.770;9.186;2022-07-23T10:18:15;28.90;91.20
47921;DHT22;33686;48.770;9.186;2022-07-23T10:20:41;28.80;91.40
47921;DHT22;33686;48.770;9.186;2022-07-23T10:25:49;28.30;91.40
47921;DHT22;33686;48.770;9.186;2022-07-23T10:33:37;29.30;90.50
47921;DHT22;33686;48.770;9.186;2022-07-23T10:36:11;29.70;90.30
47921;DHT22;33686;48.770;9.186;2022-07-23T10:38:37;28.80;90.50
47921;DHT22;33686;48.770;9.186;2022-07-23T10:41:05;28.60;91.20
47921;DHT22;33686;48.770;9.186;2022-07-23T10:43:31;28.20;91.30
47921;DHT22;33686;48.770;9.186;2022-07-23T10:46:20;28.10;91.30
47921;DHT22;33686;48.770;9.186;2022-07-23T10:48:42;28.00;91.20
47921;DHT22;33686;48.770;9.186;2022-07-23T10:53:53;28.60;89.40
47921;DHT22;33686;48.770;9.186;2022-07-23T10:59:03;28.40;89.50
47921;DHT22;33686;48.770;9.186;2022-07-23T11:01:36;28.10;90.20
47921;DHT22;33686;48.770;9.186;2022-07-23T11:04:03;28.50;90.10
47921;DHT22;33686;48.770;9.186;2022-07-23T11:09:23;28.40;90.30
47921;DHT22;33686;48.770;9.186;2022-07-23T11:11:49;28.60;90.40
47921;DHT22;33686;48.770;9.186;2022-07-23T11:14:15;28.40;90.70
47921;DHT22;33686;48.770;9.186;2022-07-23T11:16:47;27.90;91.10
47921;DHT22;33686;48.770;9.186;2022-07-23T11:19:16;27.90;91.10
47921;DHT22;33686;48.770;9.186;2022-07-23T11:21:41;27.90;91.40
47921;DHT22;33686;48.770;9.186;2022-07-23T11:24:11;27.90;91.50
47921;DHT22;33686;48.770;9.186;2022-07-23T11:31:54;28.70;91.30
47921;DHT22;33686;48.770;9.186;2022-07-23T11:34:33;28.60;91.20
47921;DHT22;33686;48.770;9.186;2022-07-23T11:36:59;28.60;91.50
47921;DHT22;33686;48.770;9.186;2022-07-23T11:39:26;29.00;91.10
47921;DHT22;33686;48.770;9.186;2022-07-23T11:41:52;29.30;90.70
47921;DHT22;33686;48.770;9.186;2022-07-23T11:44:24;28.80;91.20
47921;DHT22;33686;48.770;9.186;2022-07-23T11:47:07;28.30;91.60
47921;DHT22;33686;48.770;9.186;2022-07-23T11:49:32;28.40;91.80
47921;DHT22;33686;48.770;9.186;2022-07-23T11:52:05;29.10;91.40
47921;DHT22;33686;48.770;9.186;2022-07-23T11:54:32;28.60;91.90
47921;DHT22;33686;48.770;9.186;2022-07-23T11:56:58;29.10;91.60
47921;DHT22;33686;48.770;9.186;2022-07-23T11:59:24;28.80;91.50
47921;DHT22;33686;48.770;9.186;2022-07-23T12:04:23;28.40;92.00
47921;DHT22;33686;48.770;9.186;2022-07-23T12:06:49;28.40;92.00
47921;DHT22;33686;48.770;9.186;2022-07-23T12:09:15;27.80;92.60
47921;DHT22;33686;48.770;9.186;2022-07-23T12:11:55;27.90;92.50
47921;DHT22;33686;48.770;9.186;2022-07-23T12:14:21;28.20;92.20
47921;DHT22;33686;48.770;9.186;2022-07-23T12:16:46;28.40;92.00
47921;DHT22;33686;48.770;9.186;2022-07-23T12:19:12;28.40;92.00
47921;DHT22;33686;48.770;9.186;2022-07-23T12:21:39;28.50;92.20
47921;DHT22;33686;48.770;9.186;2022-07-23T12:24:07;28.30;92.20
47921;DHT22;33686;48.770;9.186;2022-07-23T12:26:33;28.80;92.00
47921;DHT22;33686;48.770;9.186;2022-07-23T12:28:58;28.60;91.90
47921;DHT22;33686;48.770;9.186;2022-07-23T12:31:27;28.90;91.60
47921;DHT22;33686;48.770;9.186;2022-07-23T12:33:53;28.70;91.50
47921;DHT22;33686;48.770;9.186;2022-07-23T12:36:18;28.10;91.60
47921;DHT22;33686;48.770;9.186;2022-07-23T12:38:47;28.20;91.70
47921;DHT22;33686;48.770;9.186;2022-07-23T12:41:14;28.30;91.60
47921;DHT22;33686;48.770;9.186;2022-07-23T12:43:40;28.20;91.80
47921;DHT22;33686;48.770;9.186;2022-07-23T12:51:05;28.80;91.50
47921;DHT22;33686;48.770;9.186;2022-07-23T12:53:33;28.60;91.80
47921;DHT22;33686;48.770;9.186;2022-07-23T12:56:03;28.50;91.90
47921;DHT22;33686;48.770;9.186;2022-07-23T12:58:39;28.60;91.90
47921;DHT22;33686;48.770;9.186;2022-07-23T13:01:05;28.50;91.90
47921;DHT22;33686;48.770;9.186;2022-07-23T13:03:38;28.50;92.10
47921;DHT22;33686;48.770;9.186;2022-07-23T13:06:05;28.90;91.70
47921;DHT22;33686;48.770;9.186;2022-07-23T13:08:32;28.70;91.90
47921;DHT22;33686;48.770;9.186;2022-07-23T13:10:57;28.90;91.60
47921;DHT22;33686;48.770;9.186;2022-07-23T13:13:24;28.60;91.20
47921;DHT22;33686;48.770;9.186;2022-07-23T13:15:50;28.40;91.70
47921;DHT22;33686;48.770;9.186;2022-07-23T13:18:16;28.60;91.70
47921;DHT22;33686;48.770;9.186;2022-07-23T13:20:43;28.30;91.50
47921;DHT22;33686;48.770;9.186;2022-07-23T13:23:08;28.20;91.20
47921;DHT22;33686;48.770;9.186;2022-07-23T13:25:34;28.50;91.00
47921;DHT22;33686;48.770;9.186;2022-07-23T13:28:00;29.00;90.60
47921;DHT22;33686;48.770;9.186;2022-07-23T13:30:25;29.00;90.50
47921;DHT22;33686;48.770;9.186;2022-07-23T13:32:51;29.10;90.50
47921;DHT22;33686;48.770;9.186;2022-07-23T13:35:16;29.20;90.10
47921;DHT22;33686;48.770;9.186;2022-07-23T13:37:42;29.00;90.40
47921;DHT22;33686;48.770;9.186;2022-07-23T13:40:07;28.80;90.50
47921;DHT22;33686;48.770;9.186;2022-07-23T13:42:33;28.80;90.60
47921;DHT22;33686;48.770;9.186;2022-07-23T13:44:59;29.10;90.30
47921;DHT22;33686;48.770;9.186;2022-07-23T13:47:25;28.70;91.00
47921;DHT22;33686;48.770;9.186;2022-07-23T13:49:50;28.80;91.20
47921;DHT22;33686;48.770;9.186;2022-07-23T13:52:16;28.60;91.40
47921;DHT22;33686;48.770;9.186;2022-07-23T13:54:41;28.50;91.40
47921;DHT22;33686;48.770;9.186;2022-07-23T13:57:08;29.00;91.00
47921;DHT22;33686;48.770;9.186;2022-07-23T13:59:34;29.30;90.40
47921;DHT22;33686;48.770;9.186;2022-07-23T14:02:01;28.90;90.70
47921;DHT22;33686;48.770;9.186;2022-07-23T14:04:26;28.70;90.80
47921;DHT22;33686;48.770;9.186;2022-07-23T14:06:52;28.60;90.90
47921;DHT22;33686;48.770;9.186;2022-07-23T14:09:17;28.60;91.00
47921;DHT22;33686;48.770;9.186;2022-07-23T14:11:43;28.60;90.90
47921;DHT22;33686;48.770;9.186;2022-07-23T14:14:08;28.40;90.80
47921;DHT22;33686;48.770;9.186;2022-07-23T14:16:34;28.80;90.60
47921;DHT22;33686;48.770;9.186;2022-07-23T14:18:59;28.90;91.00
47921;DHT22;33686;48.770;9.186;2022-07-23T14:21:25;28.90;90.70
47921;DHT22;33686;48.770;9.186;2022-07-23T14:23:50;29.20;90.50
47921;DHT22;33686;48.770;9.186;2022-07-23T14:26:16;29.30;89.80
47921;DHT22;33686;48.770;9.186;2022-07-23T14:28:41;28.90;90.30
47921;DHT22;33686;48.770;9.186;2022-07-23T14:31:07;29.20;90.00
47921;DHT22;33686;48.770;9.186;2022-07-23T14:33:32;29.20;90.00
47921;DHT22;33686;48.770;9.186;2022-07-23T14:35:59;29.30;89.30
47921;DHT22;33686;48.770;9.186;2022-07-23T14:38:24;29.40;89.00
47921;DHT22;33686;48.770;9.186;2022-07-23T14:40:50;29.10;88.40
47921;DHT22;33686;48.770;9.186;2022-07-23T14:43:15;29.10;88.40
47921;DHT22;33686;48.770;9.186;2022-07-23T14:45:41;29.40;88.20
47921;DHT22;33686;48.770;9.186;2022-07-23T14:48:06;29.60;88.40
47921;DHT22;33686;48.770;9.186;2022-07-23T14:50:32;29.80;88.30
47921;DHT22;33686;48.770;9.186;2022-07-23T14:52:57;30.00;87.60
47921;DHT22;33686;48.770;9.186;2022-07-23T14:55:23;30.00;87.80
47921;DHT22;33686;48.770;9.186;2022-07-23T14:57:49;29.60;86.70
47921;DHT22;33686;48.770;9.186;2022-07-23T15:00:14;29.50;87.30
47921;DHT22;33686;48.770;9.186;2022-07-23T15:02:40;29.20;87.80
47921;DHT22;33686;48.770;9.186;2022-07-23T15:05:05;29.30;86.70
47921;DHT22;33686;48.770;9.186;2022-07-23T15:07:31;29.20;87.00
47921;DHT22;33686;48.770;9.186;2022-07-23T15:09:57;29.40;86.80
47921;DHT22;33686;48.770;9.186;2022-07-23T15:12:23;29.60;86.60
47921;DHT22;33686;48.770;9.186;2022-07-23T15:14:48;29.30;87.10
47921;DHT22;33686;48.770;9.186;2022-07-23T15:17:14;29.00;87.20
47921;DHT22;33686;48.770;9.186;2022-07-23T15:19:40;29.00;87.20
47921;DHT22;33686;48.770;9.186;2022-07-23T15:22:05;29.10;86.90
47921;DHT22;33686;48.770;9.186;2022-07-23T15:24:31;29.30;86.90
47921;DHT22;33686;48.770;9.186;2022-07-23T15:26:57;29.30;87.60
47921;DHT22;33686;48.770;9.186;2022-07-23T15:29:22;29.20;88.10
47921;DHT22;33686;48.770;9.186;2022-07-23T15:31:48;29.30;87.40
47921;DHT22;33686;48.770;9.186;2022-07-23T15:34:14;29.70;87.10
47921;DHT22;33686;48.770;9.186;2022-07-23T15:36:39;29.20;89.20
47921;DHT22;33686;48.770;9.186;2022-07-23T15:39:05;28.80;89.70
47921;DHT22;33686;48.770;9.186;2022-07-23T15:41:31;28.80;90.00
47921;DHT22;33686;48.770;9.186;2022-07-23T15:43:56;28.80;89.50
47921;DHT22;33686;48.770;9.186;2022-07-23T15:46:22;28.70;89.40
47921;DHT22;33686;48.770;9.186;2022-07-23T15:48:48;28.70;89.20
47921;DHT22;33686;48.770;9.186;2022-07-23T15:51:13;28.90;89.10
47921;DHT22;33686;48.770;9.186;2022-07-23T15:53:40;29.00;89.20
47921;DHT22;33686;48.770;9.186;2022-07-23T15:56:06;29.20;89.10
47921;DHT22;33686;48.770;9.186;2022-07-23T15:58:32;29.20;88.50
47921;DHT22;33686;48.770;9.186;2022-07-23T16:00:58;29.00;88.80
47921;DHT22;33686;48.770;9.186;2022-07-23T16:03:24;28.90;89.10
47921;DHT22;33686;48.770;9.186;2022-07-23T16:05:50;29.00;89.00
47921;DHT22;33686;48.770;9.186;2022-07-23T16:08:15;29.20;88.40
47921;DHT22;33686;48.770;9.186;2022-07-23T16:10:41;29.40;88.20
47921;DHT22;33686;48.770;9.186;2022-07-23T16:13:06;29.50;87.80
47921;DHT22;33686;48.770;9.186;2022-07-23T16:15:32;29.30;88.60
47921;DHT22;33686;48.770;9.186;2022-07-23T16:17:58;29.10;89.40
47921;DHT22;33686;48.770;9.186;2022-07-23T16:20:23;29.10;89.70
47921;DHT22;33686;48.770;9.186;2022-07-23T16:22:49;29.20;89.60
47921;DHT22;33686;48.770;9.186;2022-07-23T16:25:15;29.20;88.70
47921;DHT22;33686;48.770;9.186;2022-07-23T16:27:40;29.10;88.60
47921;DHT22;33686;48.770;9.186;2022-07-23T16:30:06;29.20;87.70
47921;DHT22;33686;48.770;9.186;2022-07-23T16:32:32;29.20;87.50
47921;DHT22;33686;48.770;9.186;2022-07-23T16:34:58;29.30;87.40
47921;DHT22;33686;48.770;9.186;2022-07-23T16:37:24;28.70;88.60
47921;DHT22;33686;48.770;9.186;2022-07-23T16:39:50;28.50;89.30
47921;DHT22;33686;48.770;9.186;2022-07-23T16:42:15;28.50;90.00
47921;DHT22;33686;48.770;9.186;2022-07-23T16:44:41;28.40;90.50
47921;DHT22;33686;48.770;9.186;2022-07-23T16:47:08;28.10;90.80
47921;DHT22;33686;48.770;9.186;2022-07-23T16:49:33;28.00;91.10
47921;DHT22;33686;48.770;9.186;2022-07-23T16:52:00;28.00;91.10
47921;DHT22;33686;48.770;9.186;2022-07-23T16:54:25;28.10;91.10
47921;DHT22;33686;48.770;9.186;2022-07-23T16:56:51;28.10;91.20
47921;DHT22;33686;48.770;9.186;2022-07-23T16:59:17;28.20;91.20
47921;DHT22;33686;48.770;9.186;2022-07-23T17:01:42;28.30;91.10
47921;DHT22;33686;48.770;9.186;2022-07-23T17:04:08;28.10;91.20
47921;DHT22;33686;48.770;9.186;2022-07-23T17:06:34;28.10;91.50
47921;DHT22;33686;48.770;9.186;2022-07-23T17:09:00;28.00;91.70
47921;DHT22;33686;48.770;9.186;2022-07-23T17:11:26;28.10;91.80
47921;DHT22;33686;48.770;9.186;2022-07-23T17:13:51;28.20;91.80
47921;DHT22;33686;48.770;9.186;2022-07-23T17:16:17;27.70;92.30
47921;DHT22;33686;48.770;9.186;2022-07-23T17:18:42;27.60;92.60
47921;DHT22;33686;48.770;9.186;2022-07-23T17:21:08;27.80;92.60
47921;DHT22;33686;48.770;9.186;2022-07-23T17:23:34;27.60;92.90
47921;DHT22;33686;48.770;9.186;2022-07-23T17:25:59;27.60;93.00
47921;DHT22;33686;48.770;9.186;2022-07-23T17:28:25;27.60;93.00
47921;DHT22;33686;48.770;9.186;2022-07-23T17:30:51;27.60;92.90
47921;DHT22;33686;48.770;9.186;2022-07-23T17:33:16;27.40;92.90
47921;DHT22;33686;48.770;9.186;2022-07-23T17:35:42;27.50;93.00
47921;DHT22;33686;48.770;9.186;2022-07-23T17:38:07;27.50;93.10
47921;DHT22;33686;48.770;9.186;2022-07-23T17:40:33;27.40;93.30
47921;DHT22;33686;48.770;9.186;2022-07-23T17:42:59;27.40;93.40
47921;DHT22;33686;48.770;9.186;2022-07-23T17:45:25;27.40;93.50
47921;DHT22;33686;48.770;9.186;2022-07-23T17:47:51;27.30;93.50
47921;DHT22;33686;48.770;9.186;2022-07-23T17:50:17;27.20;93.70
47921;DHT22;33686;48.770;9.186;2022-07-23T17:52:43;27.20;93.90
47921;DHT22;33686;48.770;9.186;2022-07-23T17:55:09;27.20;93.90
47921;DHT22;33686;48.770;9.186;2022-07-23T17:57:34;27.20;94.00
47921;DHT22;33686;48.770;9.186;2022-07-23T18:00:00;27.00;94.30
47921;DHT22;33686;48.770;9.186;2022-07-23T18:02:25;26.80;94.50
47921;DHT22;33686;48.770;9.186;2022-07-23T18:04:51;26.80;94.70
47921;DHT22;33686;48.770;9.186;2022-07-23T18:07:17;26.70;94.70
47921;DHT22;33686;48.770;9.186;2022-07-23T18:09:42;26.60;94.90
47921;DHT22;33686;48.770;9.186;2022-07-23T18:12:08;26.60;95.00
47921;DHT22;33686;48.770;9.186;2022-07-23T18:14:34;26.50;95.20
47921;DHT22;33686;48.770;9.186;2022-07-23T18:16:59;26.50;95.30
47921;DHT22;33686;48.770;9.186;2022-07-23T18:19:25;26.50;95.40
47921;DHT22;33686;48.770;9.186;2022-07-23T18:21:51;26.50;95.30
47921;DHT22;33686;48.770;9.186;2022-07-23T18:24:16;26.50;95.10
47921;DHT22;33686;48.770;9.186;2022-07-23T18:26:42;26.40;95.20
47921;DHT22;33686;48.770;9.186;2022-07-23T18:29:08;26.40;95.20
47921;DHT22;33686;48.770;9.186;2022-07-23T18:31:33;26.50;95.10
47921;DHT22;33686;48.770;9.186;2022-07-23T18:33:59;26.50;95.10
47921;DHT22;33686;48.770;9.186;2022-07-23T18:36:24;26.50;95.10
47921;DHT22;33686;48.770;9.186;2022-07-23T18:38:50;26.50;95.20
47921;DHT22;33686;48.770;9.186;2022-07-23T18:41:15;26.40;95.20
47921;DHT22;33686;48.770;9.186;2022-07-23T18:43:41;26.40;95.30
47921;DHT22;33686;48.770;9.186;2022-07-23T18:46:06;26.40;95.40
47921;DHT22;33686;48.770;9.186;2022-07-23T18:48:33;26.40;95.50
47921;DHT22;33686;48.770;9.186;2022-07-23T18:50:59;26.50;95.50
47921;DHT22;33686;48.770;9.186;2022-07-23T18:53:24;26.50;95.40
47921;DHT22;33686;48.770;9.186;2022-07-23T18:55:50;26.40;95.50
47921;DHT22;33686;48.770;9.186;2022-07-23T18:58:15;26.30;95.60
47921;DHT22;33686;48.770;9.186;2022-07-23T19:00:41;26.40;95.60
47921;DHT22;33686;48.770;9.186;2022-07-23T19:03:07;26.40;95.60
47921;DHT22;33686;48.770;9.186;2022-07-23T19:05:32;26.40;95.60
47921;DHT22;33686;48.770;9.186;2022-07-23T19:07:58;26.40;95.60
47921;DHT22;33686;48.770;9.186;2022-07-23T19:10:23;26.40;95.70
47921;DHT22;33686;48.770;9.186;2022-07-23T19:12:49;26.20;95.80
47921;DHT22;33686;48.770;9.186;2022-07-23T19:15:15;26.20;95.80
47921;DHT22;33686;48.770;9.186;2022-07-23T19:17:40;26.20;95.80
47921;DHT22;33686;48.770;9.186;2022-07-23T19:20:06;26.30;95.90
47921;DHT22;33686;48.770;9.186;2022-07-23T19:22:33;26.20;96.00
47921;DHT22;33686;48.770;9.186;2022-07-23T19:24:58;26.10;96.00
47921;DHT22;33686;48.770;9.186;2022-07-23T19:27:24;26.10;96.20
47921;DHT22;33686;48.770;9.186;2022-07-23T19:29:49;26.10;96.20
47921;DHT22;33686;48.770;9.186;2022-07-23T19:32:15;26.10;96.30
47921;DHT22;33686;48.770;9.186;2022-07-23T19:34:41;26.00;96.60
47921;DHT22;33686;48.770;9.186;2022-07-23T19:37:06;26.00;96.80
47921;DHT22;33686;48.770;9.186;2022-07-23T19:39:40;25.90;97.00
47921;DHT22;33686;48.770;9.186;2022-07-23T19:42:06;25.80;97.30
47921;DHT22;33686;48.770;9.186;2022-07-23T19:44:32;25.50;98.20
47921;DHT22;33686;48.770;9.186;2022-07-23T19:46:57;25.20;98.70
47921;DHT22;33686;48.770;9.186;2022-07-23T19:49:23;25.00;99.20
47921;DHT22;33686;48.770;9.186;2022-07-23T19:51:48;24.90;99.60
47921;DHT22;33686;48.770;9.186;2022-07-23T19:54:14;24.60;99.90
47921;DHT22;33686;48.770;9.186;2022-07-23T19:56:40;24.50;99.90
47921;DHT22;33686;48.770;9.186;2022-07-23T19:59:05;24.50;99.90
47921;DHT22;33686;48.770;9.186;2022-07-23T20:01:31;24.50;99.90
47921;DHT22;33686;48.770;9.186;2022-07-23T20:03:57;24.50;99.90
47921;DHT22;33686;48.770;9.186;2022-07-23T20:06:22;24.70;99.90
47921;DHT22;33686;48.770;9.186;2022-07-23T20:08:48;24.70;99.90
47921;DHT22;33686;48.770;9.186;2022-07-23T20:11:13;24.70;99.90
47921;DHT22;33686;48.770;9.186;2022-07-23T20:13:39;24.70;99.90
47921;DHT22;33686;48.770;9.186;2022-07-23T20:16:06;24.60;99.90